createdAt,value
2023-01-27T00:01:18.711Z,47.53
2023-01-27T00:03:46.981Z,47.38
2023-01-27T00:06:16.733Z,47.50
2023-01-27T00:08:44.806Z,47.82
2023-01-27T00:11:30.259Z,47.60
2023-01-27T00:13:58.334Z,48.09
2023-01-27T00:16:26.639Z,47.90
2023-01-27T00:18:54.795Z,47.40
2023-01-27T00:21:38.096Z,47.83
2023-01-27T00:24:24.332Z,47.37
2023-01-27T00:26:52.510Z,47.70
2023-01-27T00:29:20.692Z,47.62
2023-01-27T00:32:06.479Z,47.54
2023-01-27T00:34:34.733Z,47.81
2023-01-27T00:37:06.730Z,47.85
2023-01-27T00:39:35.018Z,47.80
2023-01-27T00:42:03.108Z,48.28
2023-01-27T00:44:31.391Z,47.87
2023-01-27T00:46:59.772Z,47.96
2023-01-27T00:49:27.853Z,48.02
2023-01-27T00:51:56.290Z,48.08
2023-01-27T00:54:25.877Z,48.10
2023-01-27T00:56:53.999Z,48.30
2023-01-27T00:59:23.234Z,48.24
2023-01-27T01:01:51.494Z,47.96
2023-01-27T01:04:19.848Z,48.24
2023-01-27T01:06:49.048Z,48.18
2023-01-27T01:09:17.363Z,48.18
2023-01-27T01:11:49.094Z,48.29
2023-01-27T01:14:17.600Z,48.18
2023-01-27T01:16:45.990Z,48.28
2023-01-27T01:19:17.705Z,48.31
2023-01-27T01:21:47.520Z,48.35
2023-01-27T01:24:16.411Z,48.17
2023-01-27T01:26:59.845Z,48.06
2023-01-27T01:29:33.340Z,48.13
2023-01-27T01:32:01.827Z,48.10
2023-01-27T01:34:30.810Z,48.19
2023-01-27T01:36:59.029Z,48.18
2023-01-27T01:39:29.666Z,48.14
2023-01-27T01:41:57.958Z,48.17
2023-01-27T01:44:28.050Z,48.51
2023-01-27T01:47:01.168Z,48.60
2023-01-27T01:49:34.656Z,48.53
2023-01-27T01:52:07.811Z,48.52
2023-01-27T01:54:39.987Z,48.50
2023-01-27T01:57:12.025Z,48.79
2023-01-27T01:59:44.842Z,48.75
2023-01-27T02:02:19.744Z,48.72
2023-01-27T02:04:55.130Z,48.74
2023-01-27T02:07:29.856Z,48.83
2023-01-27T02:10:00.945Z,48.56
2023-01-27T02:12:29.358Z,48.93
2023-01-27T02:15:07.536Z,48.90
2023-01-27T02:17:37.487Z,48.83
2023-01-27T02:20:10.837Z,48.99
2023-01-27T02:22:48.575Z,49.04
2023-01-27T02:25:25.437Z,49.08
2023-01-27T02:27:55.418Z,49.37
2023-01-27T02:30:23.603Z,49.10
2023-01-27T02:32:52.233Z,49.09
2023-01-27T02:35:33.118Z,49.36
2023-01-27T02:38:02.271Z,49.32
2023-01-27T02:40:31.891Z,49.52
2023-01-27T02:43:03.414Z,49.24
2023-01-27T02:45:31.641Z,49.50
2023-01-27T02:47:59.920Z,49.24
2023-01-27T02:50:28.288Z,49.36
2023-01-27T02:52:56.767Z,49.70
2023-01-27T02:55:25.329Z,49.82
2023-01-27T02:57:53.477Z,49.85
2023-01-27T03:00:23.292Z,49.80
2023-01-27T03:02:51.655Z,49.61
2023-01-27T03:05:19.844Z,49.71
2023-01-27T03:07:47.949Z,49.79
2023-01-27T03:10:16.208Z,49.44
2023-01-27T03:12:45.775Z,49.64
2023-01-27T03:15:31.497Z,49.61
2023-01-27T03:18:17.647Z,49.43
2023-01-27T03:20:48.365Z,49.81
2023-01-27T03:23:19.381Z,49.46
2023-01-27T03:25:49.887Z,49.47
2023-01-27T03:28:18.039Z,49.23
2023-01-27T03:30:46.515Z,49.31
2023-01-27T03:33:16.496Z,49.38
2023-01-27T03:35:49.547Z,49.10
2023-01-27T03:38:35.670Z,49.17
2023-01-27T03:41:22.124Z,49.33
2023-01-27T03:44:07.290Z,49.24
2023-01-27T03:46:35.430Z,49.09
2023-01-27T03:49:05.491Z,49.03
2023-01-27T03:51:33.603Z,49.12
2023-01-27T03:54:02.200Z,49.21
2023-01-27T03:56:30.571Z,48.97
2023-01-27T03:58:58.853Z,49.25
2023-01-27T04:01:27.808Z,48.86
2023-01-27T04:04:13.819Z,49.01
2023-01-27T04:06:58.634Z,48.80
2023-01-27T04:09:29.281Z,48.95
2023-01-27T04:12:00.682Z,48.86
2023-01-27T04:14:31.864Z,48.66
2023-01-27T04:17:02.454Z,48.82
2023-01-27T04:19:30.898Z,48.73
2023-01-27T04:22:02.791Z,48.87
2023-01-27T04:24:34.348Z,48.82
2023-01-27T04:27:05.734Z,48.80
2023-01-27T04:29:36.638Z,48.72
2023-01-27T04:32:06.163Z,48.77
2023-01-27T04:34:34.345Z,48.99
2023-01-27T04:37:05.064Z,48.84
2023-01-27T04:39:33.469Z,48.74
2023-01-27T04:42:01.848Z,48.75
2023-01-27T04:44:30.128Z,48.55
2023-01-27T04:46:58.475Z,48.83
2023-01-27T04:49:27.385Z,48.64
2023-01-27T04:51:55.674Z,48.36
2023-01-27T04:54:25.313Z,48.53
2023-01-27T04:56:58.559Z,48.35
2023-01-27T04:59:27.120Z,48.44
2023-01-27T05:01:55.426Z,48.15
2023-01-27T05:04:23.655Z,48.23
2023-01-27T05:06:51.742Z,48.26
2023-01-27T05:09:19.958Z,48.03
2023-01-27T05:11:49.554Z,47.99
2023-01-27T05:14:17.763Z,47.74
2023-01-27T05:16:45.916Z,47.73
2023-01-27T05:19:14.075Z,47.64
2023-01-27T05:21:43.494Z,47.58
2023-01-27T05:24:12.059Z,47.84
2023-01-27T05:26:40.778Z,47.86
2023-01-27T05:29:10.957Z,47.80
2023-01-27T05:31:39.428Z,47.65
2023-01-27T05:34:07.914Z,47.93
2023-01-27T05:36:36.176Z,47.86
2023-01-27T05:39:04.417Z,47.72
2023-01-27T05:41:35.089Z,47.80
2023-01-27T05:44:03.397Z,47.47
2023-01-27T05:46:34.286Z,47.82
2023-01-27T05:49:05.607Z,47.50
2023-01-27T05:51:35.810Z,47.81
2023-01-27T05:54:04.915Z,47.62
2023-01-27T05:56:36.051Z,47.71
2023-01-27T05:59:04.511Z,47.48
2023-01-27T06:01:37.543Z,47.53
2023-01-27T06:04:07.219Z,47.23
2023-01-27T06:06:36.245Z,47.34
2023-01-27T06:09:05.732Z,47.11
2023-01-27T06:11:35.897Z,47.19
2023-01-27T06:14:06.128Z,47.44
2023-01-27T06:16:36.031Z,46.93
2023-01-27T06:19:04.462Z,46.86
2023-01-27T06:21:33.462Z,46.99
2023-01-27T06:24:01.954Z,46.86
2023-01-27T06:26:30.216Z,46.66
2023-01-27T06:28:58.975Z,46.87
2023-01-27T06:31:29.862Z,46.82
2023-01-27T06:33:59.449Z,46.81
2023-01-27T06:36:27.765Z,46.65
2023-01-27T06:38:55.958Z,46.64
2023-01-27T06:41:25.011Z,46.61
2023-01-27T06:43:54.417Z,46.39
2023-01-27T06:46:22.729Z,46.61
2023-01-27T06:48:51.238Z,46.45
2023-01-27T06:51:20.781Z,46.46
2023-01-27T06:53:49.007Z,46.31
2023-01-27T06:56:17.592Z,46.69
2023-01-27T06:58:46.120Z,46.45
2023-01-27T07:01:14.361Z,46.66
2023-01-27T07:03:44.720Z,46.40
2023-01-27T07:06:15.227Z,46.51
2023-01-27T07:08:47.074Z,46.62
2023-01-27T07:11:15.407Z,46.56
2023-01-27T07:13:43.649Z,46.79
2023-01-27T07:16:12.026Z,46.86
2023-01-27T07:18:40.428Z,46.65
2023-01-27T07:21:08.535Z,46.70
2023-01-27T07:23:36.593Z,47.07
2023-01-27T07:26:19.295Z,46.98
2023-01-27T07:28:53.196Z,47.12
2023-01-27T07:31:21.434Z,47.39
2023-01-27T07:33:49.668Z,47.28
2023-01-27T07:36:17.811Z,47.31
2023-01-27T07:38:46.029Z,47.34
2023-01-27T07:41:15.833Z,47.57
2023-01-27T07:43:44.232Z,47.71
2023-01-27T07:46:12.581Z,47.34
2023-01-27T07:48:40.691Z,47.59
2023-01-27T07:51:13.058Z,47.55
2023-01-27T07:53:41.048Z,47.82
2023-01-27T07:56:12.125Z,47.74
2023-01-27T07:58:44.611Z,47.75
2023-01-27T08:01:14.084Z,47.83
2023-01-27T08:03:42.535Z,47.82
2023-01-27T08:06:12.374Z,48.14
2023-01-27T08:08:41.081Z,48.18
2023-01-27T08:11:13.182Z,48.03
2023-01-27T08:13:43.439Z,48.14
2023-01-27T08:16:14.474Z,47.99
2023-01-27T08:18:43.172Z,48.05
2023-01-27T08:21:12.709Z,48.11
2023-01-27T08:23:41.037Z,48.08
2023-01-27T08:26:09.211Z,48.15
2023-01-27T08:28:39.026Z,47.95
2023-01-27T08:31:12.280Z,48.07
2023-01-27T08:33:42.041Z,48.09
2023-01-27T08:36:12.757Z,47.97
2023-01-27T08:38:41.990Z,48.08
2023-01-27T08:41:12.236Z,48.03
2023-01-27T08:43:40.589Z,47.71
2023-01-27T08:46:11.238Z,47.90
2023-01-27T08:48:40.026Z,47.52
2023-01-27T08:51:09.443Z,47.60
2023-01-27T08:53:38.312Z,47.54
2023-01-27T08:56:08.654Z,47.78
2023-01-27T08:58:36.859Z,47.36
2023-01-27T09:01:07.841Z,47.84
2023-01-27T09:03:37.878Z,47.35
2023-01-27T09:06:08.802Z,47.32
2023-01-27T09:08:37.328Z,47.63
2023-01-27T09:11:10.864Z,47.58
2023-01-27T09:13:39.146Z,47.56
2023-01-27T09:16:07.703Z,47.47
2023-01-27T09:18:37.991Z,47.53
2023-01-27T09:21:07.004Z,47.30
2023-01-27T09:23:35.960Z,47.22
2023-01-27T09:26:03.996Z,47.51
2023-01-27T09:28:32.179Z,47.12
2023-01-27T09:31:01.014Z,47.28
2023-01-27T09:33:29.098Z,47.31
2023-01-27T09:36:04.194Z,47.55
2023-01-27T09:38:38.790Z,47.16
2023-01-27T09:41:28.999Z,47.25
2023-01-27T09:44:17.490Z,47.30
2023-01-27T09:47:04.963Z,47.44
2023-01-27T09:49:51.274Z,47.24
2023-01-27T09:52:47.596Z,46.99
2023-01-27T09:55:23.434Z,46.93
2023-01-27T09:57:58.813Z,46.82
2023-01-27T10:00:37.633Z,46.65
2023-01-27T10:03:26.472Z,46.99
2023-01-27T10:06:20.198Z,47.13
2023-01-27T10:09:10.948Z,47.65
2023-01-27T10:11:47.262Z,47.56
2023-01-27T10:14:24.005Z,47.72
2023-01-27T10:17:17.675Z,47.92
2023-01-27T10:20:03.459Z,47.40
2023-01-27T10:22:43.109Z,47.16
2023-01-27T10:25:26.126Z,46.95
2023-01-27T10:27:58.620Z,46.94
2023-01-27T10:30:36.006Z,46.83
2023-01-27T10:33:17.009Z,47.26
2023-01-27T10:35:52.516Z,46.97
2023-01-27T10:38:34.220Z,47.09
2023-01-27T10:41:18.042Z,46.58
2023-01-27T10:43:54.304Z,46.67
2023-01-27T10:46:32.484Z,47.11
2023-01-27T10:49:05.915Z,46.92
2023-01-27T10:51:38.133Z,46.91
2023-01-27T10:54:14.033Z,47.09
2023-01-27T10:56:49.269Z,47.13
2023-01-27T10:59:24.098Z,47.19
2023-01-27T11:01:57.663Z,47.44
2023-01-27T11:04:34.500Z,47.81
2023-01-27T11:07:03.013Z,47.48
2023-01-27T11:09:35.441Z,47.21
2023-01-27T11:12:07.557Z,46.87
2023-01-27T11:14:46.800Z,47.11
2023-01-27T11:17:19.010Z,46.93
2023-01-27T11:19:59.850Z,46.80
2023-01-27T11:22:35.302Z,47.00
2023-01-27T11:25:09.013Z,47.25
2023-01-27T11:27:55.165Z,47.34
2023-01-27T11:30:29.414Z,47.21
2023-01-27T11:33:03.580Z,47.30
2023-01-27T11:35:31.775Z,46.88
2023-01-27T11:38:14.557Z,47.18
2023-01-27T11:40:45.964Z,47.10
2023-01-27T11:43:19.490Z,47.02
2023-01-27T11:45:48.037Z,46.94
2023-01-27T11:48:21.108Z,46.70
2023-01-27T11:50:50.936Z,46.88
2023-01-27T11:53:25.597Z,46.92
2023-01-27T11:55:58.577Z,46.88
2023-01-27T11:58:34.379Z,46.82
2023-01-27T12:01:05.774Z,47.08
2023-01-27T12:03:58.534Z,47.22
2023-01-27T12:06:35.789Z,47.47
2023-01-27T12:09:04.028Z,47.26
2023-01-27T12:11:33.942Z,47.33
2023-01-27T12:14:07.135Z,47.46
2023-01-27T12:16:46.561Z,47.71
2023-01-27T12:19:24.020Z,47.35
2023-01-27T12:21:55.367Z,47.79
2023-01-27T12:24:32.106Z,47.86
2023-01-27T12:27:01.716Z,47.89
2023-01-27T12:29:41.077Z,48.06
2023-01-27T12:32:18.465Z,47.80
2023-01-27T12:34:50.661Z,47.48
2023-01-27T12:37:23.993Z,47.39
2023-01-27T12:39:57.348Z,47.44
2023-01-27T12:42:40.346Z,47.34
2023-01-27T12:45:22.267Z,47.39
2023-01-27T12:47:59.248Z,47.35
2023-01-27T12:50:30.253Z,47.18
2023-01-27T12:53:13.966Z,47.20
2023-01-27T12:55:45.261Z,47.28
2023-01-27T13:01:06.428Z,47.28
2023-01-27T13:03:45.099Z,47.24
2023-01-27T13:06:23.195Z,47.05
2023-01-27T13:08:53.947Z,46.89
2023-01-27T13:11:45.967Z,47.03
2023-01-27T13:14:22.617Z,46.76
2023-01-27T13:16:58.651Z,46.85
2023-01-27T13:19:37.428Z,46.96
2023-01-27T13:22:07.703Z,46.76
2023-01-27T13:24:42.138Z,46.74
2023-01-27T13:27:15.785Z,46.68
2023-01-27T13:29:51.137Z,46.57
2023-01-27T13:32:25.806Z,46.58
2023-01-27T13:35:01.911Z,46.61
2023-01-27T13:37:34.625Z,46.43
2023-01-27T13:40:07.732Z,46.34
2023-01-27T13:42:42.625Z,46.16
2023-01-27T13:45:16.907Z,46.26
2023-01-27T13:47:52.862Z,46.08
2023-01-27T13:50:28.314Z,45.62
2023-01-27T13:52:59.388Z,45.66
2023-01-27T13:55:43.737Z,45.51
2023-01-27T13:58:22.810Z,45.39
2023-01-27T14:01:03.916Z,44.72
2023-01-27T14:03:47.449Z,44.52
2023-01-27T14:06:28.369Z,44.15
2023-01-27T14:09:08.882Z,44.15
2023-01-27T14:11:45.988Z,44.22
2023-01-27T14:14:29.289Z,43.95
2023-01-27T14:17:17.055Z,43.86
2023-01-27T14:20:05.051Z,44.21
2023-01-27T14:22:43.383Z,44.32
2023-01-27T14:25:22.857Z,44.12
2023-01-27T14:27:57.535Z,43.83
2023-01-27T14:30:30.742Z,44.06
2023-01-27T14:33:05.718Z,43.66
2023-01-27T14:35:42.141Z,43.71
2023-01-27T14:38:17.287Z,43.25
2023-01-27T14:41:00.426Z,43.10
2023-01-27T14:43:38.528Z,42.90
2023-01-27T14:46:15.380Z,42.83
2023-01-27T14:48:58.974Z,42.92
2023-01-27T14:51:40.691Z,43.00
2023-01-27T14:54:29.835Z,43.31
2023-01-27T14:57:16.308Z,43.39
2023-01-27T14:59:53.669Z,43.44
2023-01-27T15:02:34.986Z,43.33
2023-01-27T15:05:12.194Z,43.51
2023-01-27T15:07:48.373Z,43.17
2023-01-27T15:10:31.615Z,43.30
2023-01-27T15:13:27.737Z,43.16
2023-01-27T15:16:17.481Z,43.40
2023-01-27T15:19:12.490Z,43.10
2023-01-27T15:22:13.004Z,43.08
2023-01-27T15:25:00.365Z,42.83
2023-01-27T15:27:30.080Z,43.52
2023-01-27T15:30:07.099Z,43.12
2023-01-27T15:32:38.868Z,43.49
2023-01-27T15:35:36.389Z,43.40
2023-01-27T15:38:20.045Z,43.54
2023-01-27T15:41:07.258Z,43.68
2023-01-27T15:43:40.470Z,43.76
2023-01-27T15:46:29.913Z,43.63
2023-01-27T15:49:01.703Z,43.74
2023-01-27T15:51:32.919Z,43.85
2023-01-27T15:54:01.583Z,44.08
2023-01-27T15:56:46.982Z,43.93
2023-01-27T15:59:19.638Z,44.02
2023-01-27T16:01:51.015Z,44.23
2023-01-27T16:04:26.036Z,43.99
2023-01-27T16:07:02.218Z,44.25
2023-01-27T16:09:40.811Z,44.27
2023-01-27T16:12:32.705Z,44.13
2023-01-27T16:15:35.444Z,44.35
2023-01-27T16:18:28.167Z,44.29
2023-01-27T16:21:02.610Z,44.35
2023-01-27T16:23:50.576Z,44.25
2023-01-27T16:26:30.483Z,44.50
2023-01-27T16:29:16.790Z,44.54
2023-01-27T16:31:51.259Z,44.33
2023-01-27T16:34:26.261Z,44.41
2023-01-27T16:37:04.382Z,43.93
2023-01-27T16:39:39.591Z,44.21
2023-01-27T16:42:15.453Z,44.41
2023-01-27T16:44:47.909Z,44.29
2023-01-27T16:47:22.658Z,44.33
2023-01-27T16:49:53.387Z,44.36
2023-01-27T16:52:41.176Z,44.29
2023-01-27T16:55:22.009Z,44.24
2023-01-27T16:57:51.888Z,44.25
2023-01-27T17:00:24.776Z,43.91
2023-01-27T17:02:55.121Z,44.16
2023-01-27T17:05:25.459Z,44.18
2023-01-27T17:08:05.470Z,44.24
2023-01-27T17:10:36.754Z,43.90
2023-01-27T17:13:06.111Z,44.10
2023-01-27T17:15:42.168Z,44.07
2023-01-27T17:18:12.307Z,44.06
2023-01-27T17:20:44.258Z,43.83
2023-01-27T17:23:22.995Z,44.20
2023-01-27T17:25:51.972Z,43.75
2023-01-27T17:28:31.386Z,44.10
2023-01-27T17:31:07.684Z,44.40
2023-01-27T17:33:38.524Z,44.24
2023-01-27T17:36:11.135Z,44.24
2023-01-27T17:38:46.770Z,44.42
2023-01-27T17:41:31.123Z,44.27
2023-01-27T17:44:01.744Z,44.03
2023-01-27T17:46:34.372Z,44.24
2023-01-27T17:49:07.617Z,44.13
2023-01-27T17:51:39.035Z,43.94
2023-01-27T17:54:22.103Z,44.40
2023-01-27T17:56:53.748Z,44.39
2023-01-27T17:59:27.756Z,44.58
2023-01-27T18:02:20.755Z,44.58
2023-01-27T18:04:51.444Z,44.57
2023-01-27T18:07:31.979Z,44.98
2023-01-27T18:10:01.573Z,44.89
2023-01-27T18:12:35.669Z,45.02
2023-01-27T18:15:52.408Z,45.22
2023-01-27T18:18:29.774Z,45.48
2023-01-27T18:21:06.882Z,45.32
2023-01-27T18:23:38.878Z,45.36
2023-01-27T18:26:15.454Z,45.53
2023-01-27T18:28:50.871Z,45.01
2023-01-27T18:31:23.654Z,45.54
2023-01-27T18:34:41.802Z,45.28
2023-01-27T18:37:45.402Z,45.40
2023-01-27T18:43:21.026Z,45.38
2023-01-27T18:46:06.758Z,45.71
2023-01-27T18:51:59.320Z,45.56
2023-01-27T18:58:13.403Z,45.18
2023-01-27T19:00:57.163Z,45.45
2023-01-27T19:03:35.003Z,45.49
2023-01-27T19:06:36.750Z,45.36
2023-01-27T19:09:16.675Z,45.29
2023-01-27T19:11:46.478Z,45.33
2023-01-27T19:14:31.613Z,45.42
2023-01-27T19:19:56.988Z,45.05
2023-01-27T19:22:40.480Z,45.44
2023-01-27T19:25:16.205Z,45.58
2023-01-27T19:27:53.831Z,45.45
2023-01-27T19:30:28.978Z,45.17
2023-01-27T19:33:32.847Z,45.10
2023-01-27T19:36:38.897Z,45.25
2023-01-27T19:40:02.518Z,45.32
2023-01-27T19:42:33.633Z,45.78
2023-01-27T19:45:22.435Z,45.86
2023-01-27T19:47:54.497Z,45.37
2023-01-27T19:50:41.779Z,45.43
2023-01-27T20:02:50.285Z,45.69
2023-01-27T20:05:36.322Z,45.70
2023-01-27T20:08:15.792Z,45.66
2023-01-27T20:10:48.264Z,45.65
2023-01-27T20:13:24.776Z,45.79
2023-01-27T20:15:55.115Z,45.99
2023-01-27T20:18:24.016Z,45.82
2023-01-27T20:20:52.380Z,45.84
2023-01-27T20:23:21.119Z,46.10
2023-01-27T20:25:53.903Z,45.70
2023-01-27T20:28:27.931Z,46.04
2023-01-27T20:30:57.862Z,45.93
2023-01-27T20:33:25.961Z,46.26
2023-01-27T20:35:55.957Z,46.15
2023-01-27T20:38:24.167Z,46.18
2023-01-27T20:40:52.292Z,46.12
2023-01-27T20:43:33.694Z,46.15
2023-01-27T20:46:08.990Z,46.18
2023-01-27T20:48:37.136Z,46.24
2023-01-27T20:51:07.405Z,46.58
2023-01-27T20:53:41.628Z,46.43
2023-01-27T20:56:10.677Z,46.50
2023-01-27T20:58:38.977Z,46.36
2023-01-27T21:01:11.813Z,46.55
2023-01-27T21:03:41.014Z,46.53
2023-01-27T21:06:10.097Z,46.87
2023-01-27T21:08:39.245Z,46.52
2023-01-27T21:11:10.918Z,46.42
2023-01-27T21:13:39.041Z,46.67
2023-01-27T21:16:09.029Z,46.94
2023-01-27T21:18:37.554Z,46.46
2023-01-27T21:21:06.729Z,46.64
2023-01-27T21:23:35.815Z,46.87
2023-01-27T21:26:05.363Z,46.99
2023-01-27T21:28:34.930Z,46.74
2023-01-27T21:31:08.946Z,46.85
2023-01-27T21:33:37.829Z,46.82
2023-01-27T21:36:08.672Z,46.95
2023-01-27T21:38:38.938Z,47.08
2023-01-27T21:41:07.771Z,46.94
2023-01-27T21:43:54.321Z,46.80
2023-01-27T21:46:25.177Z,46.63
2023-01-27T21:48:53.203Z,46.88
2023-01-27T21:51:21.509Z,46.79
2023-01-27T21:53:49.539Z,46.95
2023-01-27T21:56:17.807Z,47.03
2023-01-27T21:58:45.802Z,46.60
2023-01-27T22:01:16.662Z,46.88
2023-01-27T22:03:46.789Z,46.64
2023-01-27T22:06:15.624Z,47.00
2023-01-27T22:08:43.777Z,46.55
2023-01-27T22:11:12.744Z,46.49
2023-01-27T22:13:40.820Z,46.60
2023-01-27T22:16:13.793Z,46.69
2023-01-27T22:18:42.340Z,46.40
2023-01-27T22:21:12.137Z,46.86
2023-01-27T22:23:40.616Z,46.48
2023-01-27T22:26:10.156Z,46.54
2023-01-27T22:28:38.229Z,46.39
2023-01-27T22:31:06.671Z,46.44
2023-01-27T22:33:34.848Z,46.51
2023-01-27T22:36:04.358Z,46.31
2023-01-27T22:38:38.082Z,46.70
2023-01-27T22:41:06.176Z,46.16
2023-01-27T22:43:34.296Z,46.07
2023-01-27T22:46:03.040Z,46.33
2023-01-27T22:48:31.900Z,46.04
2023-01-27T22:51:04.551Z,46.36
2023-01-27T22:53:35.282Z,46.06
2023-01-27T22:56:05.619Z,46.36
2023-01-27T22:58:33.785Z,46.35
2023-01-27T23:01:01.854Z,46.11
2023-01-27T23:03:30.030Z,46.08
2023-01-27T23:05:58.114Z,46.07
2023-01-27T23:08:26.331Z,45.83
2023-01-27T23:11:01.608Z,46.10
2023-01-27T23:13:30.851Z,46.09
2023-01-27T23:15:59.335Z,45.99
2023-01-27T23:18:27.622Z,45.72
2023-01-27T23:20:55.785Z,45.95
2023-01-27T23:23:24.226Z,45.93
2023-01-27T23:25:52.320Z,45.98
2023-01-27T23:28:21.911Z,45.95
2023-01-27T23:30:51.511Z,46.13
2023-01-27T23:33:20.909Z,46.39
2023-01-27T23:35:49.278Z,46.11
2023-01-27T23:38:31.717Z,46.02
2023-01-27T23:41:02.743Z,45.88
2023-01-27T23:43:32.462Z,46.17
2023-01-27T23:46:01.144Z,46.16
2023-01-27T23:48:29.240Z,46.02
2023-01-27T23:50:57.381Z,46.57
2023-01-27T23:53:25.621Z,46.54
2023-01-27T23:55:57.975Z,46.43
2023-01-27T23:58:27.357Z,46.05
